Time;durP1;ratioP1;P1;durP2;ratioP2;P2;SDS_P1;SDS_P2;PMS_P1;PMS_P2;Temp;Humidity;BMP_temperature;BMP_pressure;BME280_temperature;BME280_humidity;BME280_pressure;Samples;Min_cycle;Max_cycle;Signal;HPM_P1;HPM_P2
2021/11/12 00:13:17;;;;;;;4.38;3.75;;;;;;;1.50;100.00;99388.94;4937627;29;20085;-75
2021/11/12 00:15:51;;;;;;;;;;;;;;;1.47;100.00;99383.72;4891840;29;20098;-75
2021/11/12 00:18:19;;;;;;;2.80;2.70;;;;;;;1.45;100.00;99375.13;4937174;29;20021;-75
2021/11/12 00:20:46;;;;;;;3.88;3.58;;;;;;;1.49;100.00;99371.84;4937335;29;20079;-75
2021/11/12 00:23:12;;;;;;;5.47;2.67;;;;;;;1.46;100.00;99377.75;4937284;29;20032;-75
2021/11/12 00:25:38;;;;;;;3.95;3.55;;;;;;;1.41;100.00;99376.75;4937250;29;20028;-74
2021/11/12 00:28:04;;;;;;;3.13;2.90;;;;;;;1.22;100.00;99383.03;4937327;29;20079;-74
2021/11/12 00:36:07;;;;;;;2.10;1.90;;;;;;;1.92;100.00;99378.13;4937193;29;20035;-75
2021/11/12 00:38:38;;;;;;;3.33;2.65;;;;;;;1.85;100.00;99386.47;4936950;29;20040;-75
2021/11/12 00:43:50;;;;;;;7.03;4.57;;;;;;;2.11;100.00;99380.31;4937122;29;20032;-75
2021/11/12 00:49:08;;;;;;;4.18;3.88;;;;;;;1.70;100.00;99392.88;4936077;29;20489;-75
2021/11/12 00:51:30;;;;;;;5.90;3.83;;;;;;;1.44;100.00;99392.16;4936528;29;20126;-75
2021/11/12 00:56:27;;;;;;;3.28;1.98;;;;;;;1.42;100.00;99387.84;4936878;29;20042;-75
2021/11/12 00:58:54;;;;;;;3.67;3.35;;;;;;;1.69;100.00;99391.16;4935299;29;20032;-74
2021/11/12 05:26:01;;;;;;;2.78;2.63;;;;;;;0.64;100.00;99264.00;4906570;29;20043;-74
2021/11/12 05:34:23;;;;;;;1.92;1.83;;;;;;;0.69;100.00;99257.34;4972215;28;20054;-75
2021/11/12 05:44:59;;;;;;;3.53;2.70;;;;;;;0.69;100.00;99257.34;4974471;28;20404;-72
2021/11/12 05:50:33;;;;;;;5.07;4.68;;;;;;;0.75;100.00;99261.75;4974147;28;20416;-72
2021/11/12 05:55:42;;;;;;;2.80;2.40;;;;;;;0.48;100.00;99264.34;4974039;28;20089;-75
2021/11/12 05:58:07;;;;;;;2.05;1.90;;;;;;;0.58;100.00;99263.81;4974199;28;20035;-70
2021/11/12 06:00:33;;;;;;;2.08;1.98;;;;;;;0.68;100.00;99250.53;4967267;28;20310;-70
2021/11/12 06:02:58;;;;;;;4.53;4.22;;;;;;;0.52;100.00;99261.06;4965835;28;20054;-75
2021/11/12 06:05:24;;;;;;;2.42;2.33;;;;;;;0.32;100.00;99259.63;4974008;28;20464;-72
2021/11/12 06:07:49;;;;;;;4.50;4.10;;;;;;;0.42;100.00;99259.06;4973986;28;20146;-72
2021/11/12 06:10:17;;;;;;;1.95;1.77;;;;;;;0.35;100.00;99255.47;4973731;28;20049;-70
2021/11/12 06:12:42;;;;;;;5.30;3.50;;;;;;;0.49;100.00;99253.34;4973848;28;20472;-70
2021/11/12 06:15:08;;;;;;;5.93;4.32;;;;;;;0.54;100.00;99246.69;4973981;28;20065;-70
2021/11/12 06:17:34;;;;;;;4.05;3.65;;;;;;;0.53;100.00;99244.94;4972389;28;20484;-70
2021/11/12 06:20:00;;;;;;;2.50;2.40;;;;;;;0.58;100.00;99247.63;4973582;28;20050;-70
2021/11/12 06:22:26;;;;;;;3.17;3.00;;;;;;;0.66;100.00;99247.03;4973545;28;20486;-70
2021/11/12 06:24:51;;;;;;;3.63;3.28;;;;;;;0.74;100.00;99245.59;4973730;28;20105;-70
2021/11/12 06:27:16;;;;;;;4.18;3.88;;;;;;;0.93;100.00;99248.66;4972525;28;20023;-70
2021/11/12 06:29:43;;;;;;;7.72;3.88;;;;;;;1.16;100.00;99245.06;4966363;28;20023;-75
2021/11/12 06:32:08;;;;;;;2.00;1.77;;;;;;;1.09;100.00;99242.28;4965258;28;20049;-72
2021/11/12 06:34:34;;;;;;;2.72;2.58;;;;;;;0.74;100.00;99250.69;4972317;28;20440;-72
2021/11/12 06:36:59;;;;;;;1.70;1.27;;;;;;;0.50;100.00;99250.84;4973558;28;20058;-72
2021/11/12 06:39:24;;;;;;;3.33;3.03;;;;;;;0.58;100.00;99240.88;4973146;28;20028;-72
2021/11/12 06:49:34;;;;;;;2.70;2.50;;;;;;;0.92;100.00;99252.91;4973111;28;20034;-76
2021/11/12 06:52:00;;;;;;;2.67;2.47;;;;;;;0.70;100.00;99259.06;4973383;28;20081;-75
2021/11/12 06:54:25;;;;;;;3.65;3.38;;;;;;;0.83;100.00;99259.44;4971984;28;20018;-75
2021/11/12 06:56:51;;;;;;;3.25;3.05;;;;;;;0.83;100.00;99254.31;4973254;28;20035;-75
2021/11/12 06:59:16;;;;;;;3.67;3.38;;;;;;;0.74;100.00;99260.88;4968146;28;20027;-75
2021/11/12 07:01:42;;;;;;;3.00;2.35;;;;;;;0.74;100.00;99255.78;4963002;28;20027;-70
2021/11/12 07:04:08;;;;;;;3.25;3.05;;;;;;;0.84;100.00;99266.25;4973108;28;20384;-70
2021/11/12 07:06:36;;;;;;;3.33;3.13;;;;;;;0.49;100.00;99263.56;4973158;28;20042;-71
2021/11/12 07:09:05;;;;;;;3.50;3.20;;;;;;;0.86;100.00;99260.34;4971665;28;20399;-72
2021/11/12 07:11:31;;;;;;;3.72;3.42;;;;;;;0.79;100.00;99260.16;4973152;28;20027;-75
2021/11/12 07:13:56;;;;;;;2.90;2.72;;;;;;;0.84;100.00;99256.06;4972935;28;20579;-75
2021/11/12 07:16:22;;;;;;;2.90;2.70;;;;;;;0.91;100.00;99257.94;4973096;28;20031;-76
2021/11/12 07:18:48;;;;;;;2.95;2.75;;;;;;;0.90;100.00;99261.31;4973037;28;20046;-75
2021/11/12 07:21:14;;;;;;;4.15;3.85;;;;;;;1.02;100.00;99261.69;4972811;28;20546;-76
2021/11/12 07:23:39;;;;;;;4.90;4.40;;;;;;;0.95;100.00;99264.84;4972856;28;20031;-72
2021/11/12 07:26:05;;;;;;;3.67;3.17;;;;;;;0.97;100.00;99263.22;4973080;28;20038;-72
2021/11/12 07:28:30;;;;;;;2.90;2.70;;;;;;;0.89;100.00;99257.91;4972967;28;20026;-72
2021/11/12 07:30:56;;;;;;;2.55;2.45;;;;;;;0.71;100.00;99258.22;4962485;28;20618;-72
2021/11/12 07:33:23;;;;;;;3.38;3.10;;;;;;;0.77;100.00;99260.09;4968077;28;20027;-72
2021/11/12 07:35:52;;;;;;;2.53;2.42;;;;;;;0.68;100.00;99255.63;4973136;28;20053;-72
2021/11/12 07:38:28;;;;;;;2.72;2.63;;;;;;;0.85;100.00;99247.56;4972783;28;20081;-72
2021/11/12 07:46:07;;;;;;;1.52;1.52;;;;;;;1.05;100.00;99240.47;4973009;28;20027;-70
2021/11/12 07:48:33;;;;;;;4.07;3.05;;;;;;;1.06;100.00;99235.41;4971533;28;20503;-72
2021/11/12 07:50:58;;;;;;;5.78;4.40;;;;;;;0.94;100.00;99252.94;4972528;28;20030;-72
2021/11/12 07:53:25;;;;;;;2.50;2.30;;;;;;;1.23;100.00;99249.50;4972768;28;20034;-72
2021/11/12 07:55:53;;;;;;;3.28;2.42;;;;;;;1.33;100.00;99247.19;4972726;28;20035;-72
2021/11/12 07:58:19;;;;;;;2.42;2.30;;;;;;;1.14;100.00;99240.72;4976516;28;20427;-72
2021/11/12 08:00:45;;;;;;;5.72;3.53;;;;;;;1.06;100.00;99234.53;4967497;28;20073;-75
2021/11/12 08:03:11;;;;;;;3.80;3.28;;;;;;;1.17;100.00;99228.91;4970071;28;20121;-74
2021/11/12 08:05:39;;;;;;;3.10;2.90;;;;;;;1.36;100.00;99227.72;4976295;28;20484;-73
2021/11/12 08:08:08;;;;;;;3.75;3.50;;;;;;;1.30;100.00;99222.41;4976654;28;20030;-73
2021/11/12 08:10:39;;;;;;;4.13;3.58;;;;;;;1.44;100.00;99215.13;4974795;28;20027;-71
2021/11/12 08:13:14;;;;;;;2.03;1.92;;;;;;;1.53;100.00;99210.25;4976137;28;20027;-72
2021/11/12 08:15:52;;;;;;;3.53;3.25;;;;;;;1.12;100.00;99204.97;4974827;28;20034;-75
2021/11/12 08:26:31;;;;;;;2.03;1.42;;;;;;;1.51;100.00;99199.16;4976049;28;20054;-70
2021/11/12 08:36:59;;;;;;;2.70;2.50;;;;;;;1.86;100.00;99197.44;4975716;28;20033;-71
2021/11/12 08:42:19;;;;;;;3.80;3.47;;;;;;;1.98;100.00;99194.28;4975914;28;20030;-70
2021/11/12 08:44:49;;;;;;;2.50;2.25;;;;;;;2.33;100.00;99186.56;4975048;28;20041;-70
2021/11/12 08:49:42;;;;;;;4.40;3.13;;;;;;;2.18;99.00;99193.06;4975047;28;20027;-70
2021/11/12 08:52:11;;;;;;;3.40;3.17;;;;;;;1.88;100.00;99197.47;4975450;28;20038;-70
2021/11/12 08:54:40;;;;;;;3.13;2.92;;;;;;;1.74;100.00;99194.56;4974061;28;20506;-70
2021/11/12 08:57:10;;;;;;;2.60;2.50;;;;;;;2.11;100.00;99206.53;4975409;28;20472;-70
2021/11/12 08:59:37;;;;;;;;;;;;;;;2.25;100.00;99194.91;4968349;28;20576;-70
2021/11/12 09:02:02;;;;;;;5.70;2.42;;;;;;;2.30;100.00;99203.53;4967101;28;19937;-70
2021/11/12 09:04:28;;;;;;;2.13;1.88;;;;;;;2.45;98.53;99202.16;4973759;28;20023;-71
2021/11/12 09:06:53;;;;;;;9.32;2.97;;;;;;;2.25;99.08;99200.03;4973917;28;20073;-70
2021/11/12 09:09:19;;;;;;;1.70;1.60;;;;;;;2.28;99.18;99191.56;4974310;28;20424;-71
2021/11/12 09:11:44;;;;;;;2.97;2.78;;;;;;;1.96;99.81;99195.97;4975125;28;20061;-73
2021/11/12 09:14:22;;;;;;;2.72;2.55;;;;;;;2.18;99.56;99187.94;4973814;28;20034;-72
2021/11/12 09:16:48;;;;;;;7.53;3.90;;;;;;;2.03;99.97;99192.69;4973736;28;20510;-73
2021/11/12 09:19:14;;;;;;;3.08;2.30;;;;;;;2.16;99.83;99188.72;4974777;28;20030;-75
2021/11/12 09:21:40;;;;;;;3.17;2.95;;;;;;;2.53;99.01;99181.03;4973670;28;20511;-71
2021/11/12 09:24:06;;;;;;;10.65;4.13;;;;;;;2.69;98.40;99177.06;4974722;28;20395;-72
2021/11/12 09:26:34;;;;;;;5.75;4.55;;;;;;;2.69;97.17;99184.75;4974881;28;20031;-75
2021/11/12 09:29:01;;;;;;;5.90;4.07;;;;;;;2.72;96.75;99192.50;4972034;28;20396;-75
2021/11/12 09:31:26;;;;;;;4.72;3.78;;;;;;;2.90;98.35;99185.97;4963153;28;20132;-72
2021/11/12 09:33:51;;;;;;;3.58;3.28;;;;;;;2.77;95.90;99184.91;4973762;28;20544;-74
2021/11/12 09:36:17;;;;;;;3.75;3.15;;;;;;;2.72;95.77;99181.41;4974551;28;20051;-71
2021/11/12 09:38:44;;;;;;;5.72;4.22;;;;;;;2.69;96.89;99176.22;4974569;28;20080;-72
2021/11/12 09:41:10;;;;;;;3.65;3.35;;;;;;;2.68;96.98;99174.50;4974338;28;20281;-73
2021/11/12 09:43:37;;;;;;;2.83;2.72;;;;;;;2.80;96.90;99175.59;4974436;28;20042;-71
2021/11/12 09:46:04;;;;;;;5.28;4.90;;;;;;;2.83;96.69;99175.63;4974376;28;20077;-71
2021/11/12 09:48:29;;;;;;;7.32;4.10;;;;;;;2.89;96.74;99191.94;4974524;28;20484;-74
2021/11/12 09:50:55;;;;;;;2.08;1.92;;;;;;;2.56;97.13;99191.31;4974051;28;20027;-73
2021/11/12 09:53:21;;;;;;;4.10;3.28;;;;;;;2.49;98.83;99186.03;4974652;28;20019;-72
2021/11/12 09:55:47;;;;;;;3.78;3.42;;;;;;;3.14;97.49;99176.19;4974234;28;20073;-72
2021/11/12 09:58:14;;;;;;;4.40;3.63;;;;;;;3.21;94.60;99177.19;4974231;28;20031;-73
2021/11/12 10:00:40;;;;;;;21.70;7.95;;;;;;;3.16;95.64;99174.56;4965759;28;20635;-72
2021/11/12 10:03:08;;;;;;;3.50;3.20;;;;;;;3.45;93.40;99166.50;4967236;28;20030;-71
2021/11/12 10:05:44;;;;;;;4.25;3.85;;;;;;;3.27;93.78;99161.94;4974251;28;20073;-73
2021/11/12 10:08:28;;;;;;;4.32;3.25;;;;;;;3.39;94.59;99167.28;4974134;28;20027;-74
2021/11/12 10:10:58;;;;;;;3.67;3.38;;;;;;;3.17;93.83;99166.03;4973641;28;20031;-75
2021/11/12 10:13:33;;;;;;;6.20;4.53;;;;;;;3.12;93.61;99159.97;4972711;28;20089;-72
2021/11/12 10:16:13;;;;;;;5.13;4.13;;;;;;;3.28;92.83;99153.41;4974041;28;20034;-70
2021/11/12 10:18:58;;;;;;;3.88;2.92;;;;;;;3.18;94.11;99142.16;4972686;28;20085;-73
2021/11/12 10:21:28;;;;;;;4.53;3.30;;;;;;;3.33;93.22;99134.72;4972931;28;20018;-72
2021/11/12 10:24:03;;;;;;;6.75;3.63;;;;;;;3.50;92.33;99135.00;4973687;28;20058;-73
2021/11/12 10:26:31;;;;;;;4.10;3.70;;;;;;;3.94;92.39;99132.25;4973784;28;20023;-71
2021/11/12 10:29:20;;;;;;;5.22;4.72;;;;;;;3.78;90.27;99120.06;4970245;28;20027;-71
2021/11/12 10:31:51;;;;;;;4.18;3.25;;;;;;;3.93;91.25;99114.28;4963831;28;20260;-72
2021/11/12 10:34:28;;;;;;;5.75;4.07;;;;;;;4.24;89.75;99111.28;4973758;28;20498;-72
2021/11/12 10:37:04;;;;;;;4.18;3.65;;;;;;;4.28;89.27;99107.06;4972445;28;20030;-72
2021/11/12 10:39:45;;;;;;;5.45;3.85;;;;;;;4.11;88.60;99110.28;4966532;28;20031;-73
2021/11/12 10:42:14;;;;;;;5.30;3.35;;;;;;;4.16;89.66;99107.78;4947782;29;20070;-75
2021/11/12 10:45:04;;;;;;;3.95;3.65;;;;;;;3.95;90.47;99112.59;4954158;28;20424;-71
2021/11/12 10:47:32;;;;;;;3.45;3.15;;;;;;;3.73;92.06;99116.56;4954180;28;20031;-72
2021/11/12 10:50:09;;;;;;;8.88;4.70;;;;;;;3.66;92.29;99120.72;4952761;28;20026;-73
2021/11/12 10:52:38;;;;;;;8.80;4.60;;;;;;;3.95;92.15;99117.72;4954118;28;20081;-73
2021/11/12 10:55:12;;;;;;;4.68;4.28;;;;;;;4.00;93.24;99111.81;4952816;28;20063;-75
2021/11/12 10:57:56;;;;;;;4.22;3.33;;;;;;;4.19;91.08;99112.91;4954006;28;20046;-76
2021/11/12 11:00:33;;;;;;;4.38;4.03;;;;;;;4.58;91.04;99097.13;4951786;28;20055;-73
2021/11/12 11:03:00;;;;;;;6.72;4.72;;;;;;;4.68;88.95;99100.66;4961623;28;20493;-74
2021/11/12 11:05:44;;;;;;;3.58;3.17;;;;;;;4.76;87.71;99093.91;4954032;28;20031;-70
2021/11/12 11:08:20;;;;;;;13.82;4.90;;;;;;;4.84;86.88;99089.72;4954159;28;20660;-72
2021/11/12 11:10:51;;;;;;;6.35;4.38;;;;;;;4.89;86.92;99082.94;4953692;28;20391;-72
2021/11/12 11:13:40;;;;;;;4.20;3.80;;;;;;;5.12;85.41;99069.44;4954026;28;20023;-72
2021/11/12 11:16:08;;;;;;;7.03;6.30;;;;;;;5.16;85.62;99050.63;4953712;28;20043;-74
2021/11/12 11:18:39;;;;;;;6.28;4.85;;;;;;;5.62;83.73;99048.41;4953850;28;20027;-71
2021/11/12 11:21:07;;;;;;;5.93;4.13;;;;;;;5.61;82.62;99049.25;4952375;28;20477;-73
2021/11/12 11:23:55;;;;;;;4.90;4.47;;;;;;;5.86;81.87;99039.97;4953754;28;20031;-71
2021/11/12 11:26:25;;;;;;;3.92;3.63;;;;;;;5.90;81.02;99040.00;4952590;29;20560;-72
2021/11/12 11:28:57;;;;;;;4.38;3.80;;;;;;;6.25;81.69;99029.00;4952513;29;20038;-73
2021/11/12 11:31:23;;;;;;;3.53;3.30;;;;;;;6.65;78.24;99023.97;4960826;28;20034;-71
2021/11/12 11:33:50;;;;;;;5.22;3.75;;;;;;;6.83;77.23;99024.00;5004043;23;20496;-76
2021/11/12 11:36:18;;;;;;;16.33;8.85;;;;;;;7.02;77.17;99018.84;4957322;28;20035;-76
2021/11/12 11:38:45;;;;;;;4.63;4.22;;;;;;;6.18;79.66;99016.97;4957342;28;20109;-76
2021/11/12 11:41:13;;;;;;;4.60;4.15;;;;;;;8.70;70.63;98998.53;4957291;28;20403;-76
2021/11/12 11:43:40;;;;;;;8.43;4.70;;;;;;;9.75;65.17;98993.25;4957177;28;20501;-76
2021/11/12 11:46:10;;;;;;;5.95;5.55;;;;;;;8.27;69.23;99004.75;4957454;28;20042;-76
2021/11/12 11:48:41;;;;;;;10.32;5.20;;;;;;;7.48;71.78;98994.72;4957260;28;20035;-75
2021/11/12 11:51:08;;;;;;;7.32;4.28;;;;;;;6.83;74.78;99008.53;4956893;28;20042;-75
2021/11/12 11:53:45;;;;;;;6.88;5.30;;;;;;;6.68;76.91;99011.09;4956568;28;20023;-75
2021/11/12 11:56:19;;;;;;;5.85;4.05;;;;;;;7.18;76.36;99003.38;4968011;28;20027;-75
2021/11/12 11:58:46;;;;;;;4.00;2.92;;;;;;;7.92;72.07;98996.31;4975739;28;20030;-75
2021/11/12 12:01:11;;;;;;;9.55;5.38;;;;;;;8.51;71.14;98991.78;4964655;28;20392;-75
2021/11/12 12:03:37;;;;;;;7.43;6.30;;;;;;;8.62;69.90;98984.81;4973095;28;20026;-76
2021/11/12 12:06:10;;;;;;;5.55;3.60;;;;;;;7.38;73.33;98985.31;4976258;28;20074;-75
2021/11/12 12:09:08;;;;;;;6.55;4.07;;;;;;;6.53;78.25;98993.06;4974926;28;20450;-75
2021/11/12 12:11:41;;;;;;;6.45;5.00;;;;;;;6.41;80.49;98984.44;4976051;28;20126;-75
2021/11/12 12:14:32;;;;;;;4.68;3.92;;;;;;;7.02;78.33;98977.63;4976319;28;20097;-75
2021/11/12 12:17:09;;;;;;;4.70;4.13;;;;;;;7.39;77.05;98979.28;4975956;28;20027;-76
2021/11/12 12:20:01;;;;;;;4.65;3.97;;;;;;;7.39;76.11;98973.28;4975861;28;20034;-75
2021/11/12 13:25:26;;;;;;;5.17;4.73;;;;;;;5.79;86.27;98915.66;4966896;28;20387;-75
2021/11/12 13:28:11;;;;;;;4.22;2.67;;;;;;;5.76;86.39;98907.94;4964156;28;20035;-78
2021/11/12 13:30:44;;;;;;;3.10;2.90;;;;;;;5.84;86.75;98903.66;4962920;28;20023;-75
2021/11/12 13:33:39;;;;;;;4.80;4.40;;;;;;;5.79;86.98;98900.22;4967917;28;20077;-75
2021/11/12 13:37:27;;;;;;;7.53;5.15;;;;;;;6.09;87.12;98893.47;5130265;27;20732;-74
2021/11/12 13:40:12;;;;;;;5.78;4.15;;;;;;;6.09;85.99;98893.47;5130274;28;20028;-74
2021/11/12 13:42:44;;;;;;;9.25;4.95;;;;;;;5.76;87.56;98889.94;5112579;28;20377;-72
2021/11/12 13:45:21;;;;;;;6.78;4.80;;;;;;;6.41;85.92;98893.50;5130148;28;20151;-72
2021/11/12 13:48:09;;;;;;;6.50;4.93;;;;;;;6.13;86.33;98893.47;5130275;28;20112;-72
2021/11/12 13:50:41;;;;;;;7.43;5.82;;;;;;;5.98;87.71;98895.16;5129898;28;20087;-72
2021/11/12 13:53:07;;;;;;;7.68;5.47;;;;;;;5.71;88.69;98891.66;5130023;27;20023;-72
2021/11/12 13:55:38;;;;;;;5.32;4.68;;;;;;;5.44;90.54;98891.53;5138324;27;20038;-72
2021/11/12 13:58:05;;;;;;;9.00;5.03;;;;;;;5.31;91.58;98886.31;5142751;27;20027;-72
2021/11/12 14:00:32;;;;;;;6.00;5.35;;;;;;;5.44;91.95;98886.41;5142983;27;20054;-72
2021/11/12 14:03:00;;;;;;;16.95;7.57;;;;;;;5.28;91.88;98885.47;5142039;27;20042;-72
2021/11/12 14:05:27;;;;;;;4.20;3.80;;;;;;;5.27;92.71;98889.75;5150488;27;20029;-72
2021/11/12 14:08:09;;;;;;;5.45;4.93;;;;;;;5.07;93.55;98892.19;5150683;27;20023;-72
2021/11/12 14:10:41;;;;;;;5.18;4.18;;;;;;;5.02;94.18;98898.16;5150195;27;20105;-72
2021/11/12 14:13:08;;;;;;;6.15;5.57;;;;;;;5.01;94.30;98896.44;5150212;27;20510;-72
2021/11/12 14:15:40;;;;;;;5.22;4.72;;;;;;;4.96;94.98;98893.00;5150257;27;20048;-72
2021/11/12 14:20:54;;;;;;;7.57;5.50;;;;;;;5.04;94.57;98905.03;5150150;27;20033;-72
2021/11/12 14:23:27;;;;;;;4.95;3.70;;;;;;;5.05;94.67;98904.19;5150178;27;20023;-72
2021/11/12 14:31:29;;;;;;;6.20;5.70;;;;;;;4.79;95.05;98895.47;5130615;27;20015;-72
2021/11/12 14:34:31;;;;;;;5.80;4.00;;;;;;;4.71;95.75;98903.09;5149519;27;20113;-72
2021/11/12 14:37:21;;;;;;;8.57;6.65;;;;;;;4.56;95.94;98908.13;5149298;27;20099;-74
2021/11/12 14:40:04;;;;;;;10.50;5.03;;;;;;;4.41;96.83;98898.59;5149565;27;20057;-74
2021/11/12 14:45:04;;;;;;;6.60;6.10;;;;;;;4.28;97.97;98917.28;5149752;27;20470;-74
2021/11/12 14:47:42;;;;;;;7.20;4.15;;;;;;;4.05;98.78;98914.47;5143465;27;20054;-74
2021/11/12 14:50:26;;;;;;;5.70;5.13;;;;;;;4.07;99.43;98917.94;5135597;27;20102;-74
2021/11/12 14:56:38;;;;;;;4.15;3.70;;;;;;;4.27;99.37;98921.53;5108355;27;20031;-74
2021/11/12 14:58:42;;;;;;;3.65;3.38;;;;;;;4.28;98.60;98913.00;5121997;27;20451;-73
2021/11/12 15:01:14;;;;;;;5.20;4.20;;;;;;;4.22;98.77;98912.94;5116145;27;20031;-74
2021/11/12 15:03:42;;;;;;;6.28;3.45;;;;;;;4.02;99.66;98929.84;5132956;27;20064;-74
2021/11/12 15:06:13;;;;;;;8.60;5.85;;;;;;;3.80;99.60;98929.59;5135473;27;20098;-74
2021/11/12 15:11:11;;;;;;;6.63;4.25;;;;;;;3.55;100.00;98932.72;5135257;27;20023;-74
2021/11/12 15:13:38;;;;;;;4.47;4.05;;;;;;;3.46;100.00;98932.59;5135405;27;20019;-74
2021/11/12 15:16:11;;;;;;;5.00;4.47;;;;;;;3.29;100.00;98935.81;5135215;27;20527;-76
2021/11/12 15:18:36;;;;;;;11.02;7.40;;;;;;;3.28;100.00;98936.63;5135449;27;20031;-74
2021/11/12 15:21:05;;;;;;;6.35;4.78;;;;;;;3.23;100.00;98935.69;5135074;27;20023;-74
2021/11/12 15:23:48;;;;;;;3.08;2.90;;;;;;;3.17;100.00;98943.28;5135011;27;20102;-74
2021/11/12 15:26:26;;;;;;;20.17;5.65;;;;;;;3.37;100.00;98942.72;5116461;27;20015;-74
2021/11/12 15:29:04;;;;;;;5.68;5.22;;;;;;;3.48;100.00;98947.16;5132571;27;20497;-73
2021/11/12 15:34:07;;;;;;;3.45;3.22;;;;;;;3.29;99.52;98951.16;5094230;28;20036;-74
2021/11/12 15:36:34;;;;;;;5.25;4.32;;;;;;;3.13;100.00;98958.59;5093726;28;20028;-74
2021/11/12 15:44:20;;;;;;;5.07;4.68;;;;;;;3.29;99.67;98946.03;5093583;28;20020;-73
2021/11/12 15:46:57;;;;;;;3.45;3.15;;;;;;;3.27;100.00;98952.81;5093786;28;20066;-73
2021/11/12 15:49:24;;;;;;;4.28;3.85;;;;;;;3.35;99.46;98956.38;5093546;28;20091;-74
2021/11/12 15:52:03;;;;;;;4.18;3.85;;;;;;;3.21;100.00;98954.44;5093569;28;20024;-74
2021/11/12 16:12:45;;;;;;;4.47;4.05;;;;;;;3.30;100.00;98978.47;5134065;27;20026;-73
2021/11/12 16:25:18;;;;;;;5.63;4.72;;;;;;;3.06;100.00;98978.13;5126682;27;20080;-74
2021/11/12 16:27:56;;;;;;;5.57;4.82;;;;;;;3.11;100.00;98975.63;5125034;27;20520;-73
2021/11/12 16:30:25;;;;;;;9.75;5.70;;;;;;;3.39;100.00;98976.91;5125822;27;20284;-73
2021/11/12 16:32:52;;;;;;;4.60;3.95;;;;;;;3.17;100.00;98986.81;5114240;27;20122;-74
2021/11/12 16:35:22;;;;;;;6.65;3.33;;;;;;;3.01;100.00;98990.84;5112950;28;20031;-74
2021/11/12 16:37:51;;;;;;;3.88;3.50;;;;;;;3.22;100.00;98982.63;5113210;28;20486;-74
2021/11/12 16:43:01;;;;;;;3.88;3.58;;;;;;;2.86;100.00;98976.97;5113266;28;20023;-79
2021/11/12 17:06:33;;;;;;;6.47;4.82;;;;;;;2.52;100.00;98963.63;5133360;27;20407;-74
2021/11/12 17:46:57;;;;;;;4.72;3.13;;;;;;;2.25;100.00;98957.16;5051701;28;20059;-76
2021/11/12 18:02:37;;;;;;;5.68;3.95;;;;;;;2.29;100.00;98964.06;5043581;28;20037;-73
2021/11/12 21:46:22;;;;;;;3.20;1.98;;;;;;;1.85;100.00;98871.28;5032038;28;20022;-75
2021/11/12 21:48:57;;;;;;;2.67;2.47;;;;;;;1.79;100.00;98877.13;5031758;28;20036;-75
2021/11/12 21:51:27;;;;;;;2.58;2.45;;;;;;;1.66;100.00;98864.97;5032130;28;20040;-75
2021/11/12 21:53:53;;;;;;;;;;;;;;;1.70;100.00;98876.97;5033403;28;20025;-75
2021/11/12 21:56:19;;;;;;;3.00;2.42;;;;;;;1.72;100.00;98879.53;5051497;28;20043;-75
2021/11/12 21:58:44;;;;;;;3.20;2.92;;;;;;;1.57;100.00;98880.13;5054718;28;20466;-75
2021/11/12 22:01:10;;;;;;;3.30;3.10;;;;;;;1.59;100.00;98873.31;5055442;28;20025;-75
2021/11/12 22:03:36;;;;;;;3.58;3.28;;;;;;;1.58;100.00;98866.50;5038735;28;20544;-72
2021/11/12 22:06:02;;;;;;;2.25;2.05;;;;;;;1.62;100.00;98852.97;5035811;28;20018;-72
2021/11/12 22:08:29;;;;;;;1.75;1.65;;;;;;;1.50;100.00;98857.88;5035690;28;20033;-72
2021/11/12 22:10:56;;;;;;;4.15;3.15;;;;;;;1.51;100.00;98852.78;5035364;28;20025;-72
2021/11/12 22:13:21;;;;;;;2.60;2.50;;;;;;;1.53;100.00;98850.25;5035410;28;20034;-72
2021/11/12 22:15:47;;;;;;;3.72;3.42;;;;;;;1.51;100.00;98839.16;5035480;28;20135;-72
2021/11/12 22:18:12;;;;;;;7.97;3.75;;;;;;;1.58;100.00;98846.06;5035377;28;20033;-75
2021/11/12 22:20:39;;;;;;;3.25;2.95;;;;;;;1.57;100.00;98841.81;5035246;28;20033;-72
2021/11/12 22:23:05;;;;;;;5.13;3.33;;;;;;;1.67;100.00;98836.03;5035272;28;20028;-70
2021/11/12 22:25:31;;;;;;;2.90;2.70;;;;;;;1.62;100.00;98841.91;5050043;28;20029;-74
2021/11/12 22:27:56;;;;;;;3.28;3.08;;;;;;;1.62;100.00;98840.19;5055023;28;20051;-75
2021/11/12 22:30:22;;;;;;;3.20;2.95;;;;;;;1.51;100.00;98844.25;5054948;28;20501;-71
2021/11/12 22:32:47;;;;;;;3.33;3.03;;;;;;;1.51;100.00;98839.16;5044730;28;20124;-75
2021/11/12 22:35:13;;;;;;;3.05;2.83;;;;;;;1.52;100.00;98845.97;5035349;28;20037;-71
2021/11/12 22:37:39;;;;;;;2.78;2.63;;;;;;;1.51;100.00;98839.16;5035023;28;20065;-70
2021/11/12 22:40:07;;;;;;;2.70;2.50;;;;;;;1.50;100.00;98842.53;5034868;28;20114;-70
2021/11/12 22:42:33;;;;;;;1.50;1.48;;;;;;;1.40;100.00;98840.63;5034826;28;20029;-71
2021/11/12 22:44:59;;;;;;;3.42;2.80;;;;;;;1.33;100.00;98849.00;5034976;28;20113;-75
2021/11/12 22:47:25;;;;;;;7.38;2.35;;;;;;;1.40;100.00;98838.06;5034873;28;20021;-75
2021/11/12 22:49:50;;;;;;;1.80;1.63;;;;;;;1.30;100.00;98839.56;5034712;28;20030;-70
2021/11/12 22:52:15;;;;;;;4.85;4.45;;;;;;;1.26;100.00;98837.81;5035015;28;20026;-70
2021/11/12 22:54:47;;;;;;;4.07;3.65;;;;;;;1.23;100.00;98833.50;5042605;28;20021;-70
2021/11/12 22:57:14;;;;;;;3.03;2.72;;;;;;;1.18;100.00;98834.25;5049336;28;20089;-75
2021/11/12 22:59:39;;;;;;;2.75;2.60;;;;;;;1.23;100.00;98830.94;5042392;28;20036;-70
2021/11/12 23:02:05;;;;;;;2.15;2.05;;;;;;;1.24;100.00;98824.16;5050297;28;20061;-70
2021/11/12 23:04:30;;;;;;;3.47;3.17;;;;;;;1.29;100.00;98818.31;5034477;28;20025;-70
2021/11/12 23:06:55;;;;;;;2.55;2.22;;;;;;;1.22;100.00;98821.56;5034607;28;20025;-70
2021/11/12 23:09:21;;;;;;;5.90;2.92;;;;;;;1.28;100.00;98826.78;5033835;28;20060;-71
2021/11/12 23:11:47;;;;;;;3.63;3.33;;;;;;;1.24;100.00;98827.56;5034526;28;20105;-70
2021/11/12 23:14:13;;;;;;;2.40;2.20;;;;;;;1.32;100.00;98816.66;5034381;28;20116;-70
2021/11/12 23:16:38;;;;;;;2.15;2.05;;;;;;;1.29;100.00;98823.41;5034224;28;20133;-70
2021/11/12 23:19:04;;;;;;;6.72;3.42;;;;;;;1.27;100.00;98819.97;5034111;28;20072;-71
2021/11/12 23:21:30;;;;;;;4.13;3.80;;;;;;;1.38;100.00;98826.97;5034315;28;20072;-71
2021/11/12 23:23:56;;;;;;;2.90;2.50;;;;;;;1.35;100.00;98817.56;5035874;28;20021;-70
2021/11/12 23:26:23;;;;;;;2.75;2.55;;;;;;;1.37;100.00;98820.16;5053976;28;20017;-75
2021/11/12 23:28:49;;;;;;;3.75;3.42;;;;;;;1.37;100.00;98825.25;5053922;28;20055;-75
2021/11/12 23:31:15;;;;;;;2.75;2.55;;;;;;;1.43;100.00;98817.72;5053846;28;20409;-75
2021/11/12 23:33:41;;;;;;;2.45;2.35;;;;;;;1.42;100.00;98813.44;5077680;22;20060;-72
2021/11/12 23:36:06;;;;;;;6.88;3.22;;;;;;;1.45;100.00;98818.59;5033916;28;20032;-72
2021/11/12 23:38:32;;;;;;;2.42;2.25;;;;;;;1.47;100.00;98816.94;5034047;28;20129;-72
2021/11/12 23:40:57;;;;;;;2.40;2.22;;;;;;;1.36;100.00;98813.34;5033780;28;20029;-72
2021/11/12 23:43:22;;;;;;;2.90;2.70;;;;;;;1.35;100.00;98811.59;5033758;28;20075;-72
2021/11/12 23:45:48;;;;;;;2.05;1.95;;;;;;;1.35;100.00;98812.44;5033967;28;20022;-72
2021/11/12 23:48:13;;;;;;;5.75;3.95;;;;;;;1.48;100.00;98813.56;5033767;28;20079;-72
2021/11/12 23:50:40;;;;;;;2.60;2.28;;;;;;;1.59;100.00;98814.59;5033828;28;20105;-72
2021/11/12 23:53:05;;;;;;;3.10;2.80;;;;;;;1.55;100.00;98815.41;5033623;28;20049;-72
2021/11/12 23:55:31;;;;;;;3.60;3.33;;;;;;;1.54;100.00;98806.00;5041234;28;20060;-73
2021/11/12 23:57:56;;;;;;;3.45;3.20;;;;;;;1.44;100.00;98801.56;5045113;28;20020;-73
